Time;durP1;ratioP1;P1;durP2;ratioP2;P2;SDS_P1;SDS_P2;PMS_P1;PMS_P2;Temp;Humidity;BMP_temperature;BMP_pressure;BME280_temperature;BME280_humidity;BME280_pressure;Samples;Min_cycle;Max_cycle;Signal;HPM_P1;HPM_P2
2022/10/22 00:03:47;;;;;;;48.00;28.10;;;;;;;12.50;60.35;98891.17;226208;1241;138921;-62
2022/10/22 00:08:50;;;;;;;49.90;26.50;;;;;;;12.49;60.41;98902.45;226200;1236;139740;-63
2022/10/22 00:13:54;;;;;;;45.80;27.20;;;;;;;12.50;60.13;98908.42;227322;1230;139062;-62
2022/10/22 00:18:57;;;;;;;51.60;27.40;;;;;;;12.50;60.30;98909.34;226489;1235;138806;-62
2022/10/22 00:24:01;;;;;;;47.40;27.10;;;;;;;12.47;60.28;98901.20;226421;1241;139293;-63
2022/10/22 00:29:04;;;;;;;44.00;26.80;;;;;;;12.42;60.76;98894.60;227292;1236;138466;-62
2022/10/22 00:34:07;;;;;;;44.20;27.30;;;;;;;12.39;60.59;98886.14;227348;1230;138775;-62
2022/10/22 00:39:11;;;;;;;43.20;27.60;;;;;;;12.35;60.92;98876.76;227493;1227;139315;-61
2022/10/22 00:44:52;;;;;;;43.00;26.40;;;;;;;12.35;60.94;98881.63;227446;1226;138922;-61
2022/10/22 00:49:59;;;;;;;43.90;25.80;;;;;;;12.32;61.04;98890.00;226647;1248;139755;-61
2022/10/22 00:55:04;;;;;;;45.50;25.70;;;;;;;12.32;61.29;98891.38;226429;1243;140456;-61
2022/10/22 01:00:08;;;;;;;41.30;24.60;;;;;;;12.37;61.22;98877.57;227503;1230;140454;-61
2022/10/22 01:05:12;;;;;;;42.40;27.00;;;;;;;12.41;61.12;98880.80;226485;1247;141729;-61
2022/10/22 01:10:37;;;;;;;43.90;26.10;;;;;;;12.45;61.13;98880.86;226260;1244;139554;-61
2022/10/22 01:15:53;;;;;;;42.10;25.00;;;;;;;12.43;61.23;98875.84;226247;1235;138645;-61
2022/10/22 01:21:21;;;;;;;40.20;25.10;;;;;;;12.39;61.29;98865.33;226160;1242;138703;-61
2022/10/22 01:26:27;;;;;;;42.10;25.20;;;;;;;12.31;61.04;98867.84;226224;1234;138813;-60
2022/10/22 01:31:36;;;;;;;40.60;24.80;;;;;;;12.24;61.12;98870.45;226372;1240;139347;-60
2022/10/22 01:36:41;;;;;;;42.50;25.50;;;;;;;12.16;61.56;98864.59;226504;1238;138784;-60
2022/10/22 01:41:45;;;;;;;42.70;25.40;;;;;;;12.11;61.18;98862.14;227656;1233;139334;-61
2022/10/22 01:46:52;;;;;;;44.30;24.50;;;;;;;12.06;61.53;98872.75;226344;1244;139119;-59
2022/10/22 01:52:11;;;;;;;40.50;23.60;;;;;;;12.04;61.61;98868.48;226101;1236;139179;-60
2022/10/22 01:57:23;;;;;;;41.40;25.20;;;;;;;12.00;61.34;98863.10;227221;1232;139850;-63
2022/10/22 02:02:39;;;;;;;39.50;24.70;;;;;;;11.93;61.48;98866.98;226253;1243;140539;-62
2022/10/22 02:07:56;;;;;;;37.80;24.40;;;;;;;11.85;61.54;98868.94;226492;1241;139079;-61
2022/10/22 02:13:01;;;;;;;45.70;25.70;;;;;;;11.76;61.71;98852.80;226575;1234;139983;-59
2022/10/22 02:18:07;;;;;;;43.10;25.60;;;;;;;11.66;61.83;98843.41;226496;1243;139873;-60
2022/10/22 02:23:11;;;;;;;40.60;24.60;;;;;;;11.51;61.54;98847.81;226397;1241;138999;-61
2022/10/22 02:28:28;;;;;;;39.50;24.70;;;;;;;11.42;61.63;98853.77;227410;1234;139582;-61
2022/10/22 02:33:36;;;;;;;38.60;23.30;;;;;;;11.38;62.22;98846.40;226763;1241;138857;-61
2022/10/22 02:38:41;;;;;;;39.50;22.70;;;;;;;11.35;62.02;98850.64;227345;1230;138889;-60
2022/10/22 02:43:50;;;;;;;40.70;25.00;;;;;;;11.32;62.06;98862.06;227278;1233;139609;-61
2022/10/22 02:48:54;;;;;;;38.20;23.40;;;;;;;11.46;62.52;98863.66;226199;1239;139724;-60
2022/10/22 02:53:57;;;;;;;43.70;24.10;;;;;;;11.60;62.50;98855.73;226295;1243;138539;-61
2022/10/22 02:59:00;;;;;;;40.10;23.70;;;;;;;11.58;61.85;98859.94;226591;1244;139268;-60
2022/10/22 03:04:03;;;;;;;41.20;23.90;;;;;;;11.47;61.69;98855.20;226580;1238;138995;-61
2022/10/22 03:09:06;;;;;;;37.10;23.50;;;;;;;11.35;61.71;98849.83;226328;1244;139989;-61
2022/10/22 03:14:10;;;;;;;38.80;23.20;;;;;;;11.25;61.51;98849.80;227413;1234;139240;-60
2022/10/22 03:19:13;;;;;;;39.60;24.30;;;;;;;11.13;61.71;98844.00;226233;1234;139820;-61
2022/10/22 03:24:24;;;;;;;37.80;23.40;;;;;;;11.04;61.87;98852.05;227238;1232;140247;-61
2022/10/22 03:29:30;;;;;;;36.00;23.70;;;;;;;10.94;61.93;98856.80;226538;1244;139064;-61
2022/10/22 03:34:33;;;;;;;;;;;;;;;10.90;62.10;98850.90;226533;1246;138959;-62
2022/10/22 03:39:36;;;;;;;39.20;23.60;;;;;;;10.88;62.08;98847.82;226276;1236;126826;-60
2022/10/22 03:44:39;;;;;;;38.00;22.70;;;;;;;10.89;62.39;98857.16;227435;1240;139086;-60
2022/10/22 03:49:42;;;;;;;33.20;22.80;;;;;;;10.86;62.10;98862.48;226610;1249;139316;-59
2022/10/22 03:54:46;;;;;;;44.80;29.40;;;;;;;10.82;62.39;98859.20;227424;1234;139085;-59
2022/10/22 03:59:50;;;;;;;41.50;27.90;;;;;;;10.80;62.66;98857.02;227524;1233;139704;-62
2022/10/22 04:04:53;;;;;;;41.90;26.70;;;;;;;10.83;62.97;98849.36;226288;1237;138444;-61
2022/10/22 04:09:56;;;;;;;42.60;26.20;;;;;;;10.92;63.16;98841.33;227474;1234;139317;-61
2022/10/22 04:14:58;;;;;;;41.50;24.30;;;;;;;10.88;62.61;98823.67;226675;1234;139520;-61
2022/10/22 04:20:03;;;;;;;41.90;24.90;;;;;;;10.79;62.68;98827.61;226286;1244;139606;-60
2022/10/22 04:25:07;;;;;;;41.30;25.00;;;;;;;10.77;62.85;98825.67;226264;1252;139535;-59
2022/10/22 04:30:10;;;;;;;37.60;24.90;;;;;;;10.84;62.87;98824.99;226560;1241;139652;-61
2022/10/22 04:35:13;;;;;;;38.30;24.30;;;;;;;10.93;63.22;98830.77;226736;1241;140202;-60
2022/10/22 04:40:17;;;;;;;40.70;25.50;;;;;;;11.01;63.23;98830.45;226309;1239;138896;-59
2022/10/22 04:45:20;;;;;;;46.60;25.70;;;;;;;11.02;62.88;98833.41;226230;1252;138967;-60
2022/10/22 04:50:22;;;;;;;38.50;24.70;;;;;;;10.97;62.82;98827.16;226428;1249;139605;-59
2022/10/22 04:55:27;;;;;;;40.40;23.70;;;;;;;10.97;62.90;98817.80;226679;1241;139176;-59
2022/10/22 05:00:30;;;;;;;36.90;22.70;;;;;;;10.94;62.70;98822.20;226446;1241;139431;-58
2022/10/22 05:05:33;;;;;;;36.70;23.50;;;;;;;10.98;63.26;98840.09;226239;1243;139629;-59
2022/10/22 05:10:36;;;;;;;36.30;23.90;;;;;;;11.04;63.30;98834.88;227191;1236;139392;-57
2022/10/22 05:15:39;;;;;;;36.60;22.30;;;;;;;11.13;63.02;98838.54;227426;1231;139485;-59
2022/10/22 05:20:42;;;;;;;36.00;21.40;;;;;;;11.19;62.84;98832.03;226390;1245;139900;-58
2022/10/22 05:25:45;;;;;;;32.30;21.00;;;;;;;11.27;62.75;98833.66;226233;1239;140263;-58
2022/10/22 05:30:56;;;;;;;32.70;21.20;;;;;;;11.37;62.99;98827.80;226368;1234;139409;-58
2022/10/22 05:36:01;;;;;;;30.30;20.50;;;;;;;11.45;62.71;98818.91;226582;1241;140176;-58
2022/10/22 05:41:08;;;;;;;36.80;21.80;;;;;;;11.51;62.58;98814.05;226459;1247;139736;-58
2022/10/22 05:46:14;;;;;;;37.30;21.90;;;;;;;11.45;62.44;98826.56;226249;1249;139523;-57
2022/10/22 05:51:25;;;;;;;36.30;24.80;;;;;;;11.31;62.18;98824.15;226484;1234;138941;-59
2022/10/22 05:56:33;;;;;;;41.30;25.60;;;;;;;11.27;61.95;98846.27;226686;1253;138662;-58
2022/10/22 06:01:37;;;;;;;40.70;25.90;;;;;;;11.25;62.21;98859.56;226520;1241;140231;-58
2022/10/22 06:06:46;;;;;;;42.70;27.00;;;;;;;11.22;62.04;98853.73;226521;1239;138981;-58
2022/10/22 06:11:49;;;;;;;41.70;25.30;;;;;;;11.23;62.47;98849.35;227546;1236;140140;-58
2022/10/22 06:16:53;;;;;;;42.50;26.30;;;;;;;11.21;62.46;98845.09;227493;1226;139092;-58
2022/10/22 06:21:56;;;;;;;39.80;24.80;;;;;;;11.23;62.11;98850.97;226469;1240;140947;-57
2022/10/22 06:26:59;;;;;;;42.70;26.10;;;;;;;11.29;62.52;98868.15;226289;1240;139447;-58
2022/10/22 06:32:02;;;;;;;39.90;25.00;;;;;;;11.40;62.91;98867.25;226485;1239;140370;-57
2022/10/22 06:37:05;;;;;;;38.20;24.90;;;;;;;11.50;62.89;98866.35;226614;1247;139239;-58
2022/10/22 06:42:08;;;;;;;35.90;24.00;;;;;;;11.64;62.74;98859.55;227566;1227;139688;-59
2022/10/22 06:47:11;;;;;;;34.30;23.30;;;;;;;11.80;62.78;98867.66;226552;1241;139893;-59
2022/10/22 06:52:14;;;;;;;38.40;23.70;;;;;;;11.92;62.70;98890.84;226398;1233;139707;-60
2022/10/22 06:57:17;;;;;;;32.00;22.70;;;;;;;12.07;62.55;98896.95;226556;1241;139769;-59
2022/10/22 07:02:20;;;;;;;34.40;21.20;;;;;;;12.21;62.39;98898.04;226705;1241;139668;-59
2022/10/22 07:07:23;;;;;;;32.30;21.30;;;;;;;12.31;62.21;98904.11;227493;1235;140107;-60
2022/10/22 07:12:26;;;;;;;29.80;20.90;;;;;;;12.33;61.67;98909.65;226417;1250;139484;-60
2022/10/22 07:17:29;;;;;;;30.90;19.70;;;;;;;12.42;61.98;98907.74;227560;1245;139049;-59
2022/10/22 07:22:32;;;;;;;38.70;26.60;;;;;;;12.53;61.73;98900.38;226419;1237;139397;-60
2022/10/22 07:27:36;;;;;;;42.80;25.50;;;;;;;12.64;61.48;98895.90;227366;1232;138707;-60
2022/10/22 07:32:39;;;;;;;89.10;67.70;;;;;;;12.75;61.56;98882.60;227292;1234;139051;-61
2022/10/22 07:37:42;;;;;;;44.60;30.80;;;;;;;12.88;61.43;98893.91;226310;1241;138647;-60
2022/10/22 07:42:45;;;;;;;27.80;19.20;;;;;;;12.98;61.10;98893.52;226370;1241;139585;-60
2022/10/22 07:47:49;;;;;;;27.60;18.00;;;;;;;13.05;60.94;98912.23;226337;1232;139968;-61
2022/10/22 07:52:52;;;;;;;83.20;57.50;;;;;;;13.07;60.68;98925.32;226384;1241;139367;-61
2022/10/22 07:57:59;;;;;;;33.90;20.60;;;;;;;13.06;60.50;98897.58;227412;1234;139255;-61
2022/10/22 08:03:02;;;;;;;29.80;20.40;;;;;;;13.05;60.34;98892.27;227404;1226;139099;-60
2022/10/22 08:08:06;;;;;;;29.30;19.60;;;;;;;13.09;60.34;98882.01;226353;1241;138988;-60
2022/10/22 08:13:09;;;;;;;29.30;19.70;;;;;;;13.17;60.52;98867.52;227246;1239;138797;-61
2022/10/22 08:18:13;;;;;;;30.90;20.30;;;;;;;13.28;60.42;98858.52;226630;1238;139509;-59
2022/10/22 08:23:16;;;;;;;103.30;66.80;;;;;;;13.35;60.46;98865.84;227510;1240;138787;-59
2022/10/22 08:28:19;;;;;;;33.00;20.90;;;;;;;13.46;60.46;98858.36;226187;1241;139160;-61
2022/10/22 08:33:24;;;;;;;32.40;19.30;;;;;;;13.58;60.19;98865.33;226656;1238;138854;-59
2022/10/22 08:38:27;;;;;;;30.40;19.30;;;;;;;13.66;59.98;98890.71;226735;1240;139121;-59
2022/10/22 08:43:36;;;;;;;99.10;73.70;;;;;;;13.73;59.96;98907.85;227202;1233;139394;-65
2022/10/22 08:48:47;;;;;;;34.80;21.60;;;;;;;13.81;59.82;98908.33;226379;1241;138937;-59
2022/10/22 08:54:15;;;;;;;33.60;18.50;;;;;;;13.94;59.79;98923.36;226370;1237;139209;-60
2022/10/22 08:59:40;;;;;;;24.80;17.10;;;;;;;14.02;59.38;98916.30;227547;1230;140149;-59
2022/10/22 09:04:49;;;;;;;26.20;18.30;;;;;;;14.06;59.20;98927.97;226536;1233;138665;-59
2022/10/22 09:09:54;;;;;;;26.00;17.20;;;;;;;14.07;59.25;98927.11;226317;1245;138917;-59
2022/10/22 09:14:57;;;;;;;28.50;17.80;;;;;;;14.07;58.92;98930.55;226211;1233;139587;-59
2022/10/22 09:20:14;;;;;;;;;;;;;;;14.07;58.89;98922.71;227458;1243;139048;-59
2022/10/22 09:25:22;;;;;;;31.90;18.00;;;;;;;14.09;58.80;98898.44;226652;1241;125527;-59
2022/10/22 09:30:28;;;;;;;29.00;18.60;;;;;;;14.19;58.81;98875.33;226311;1255;139605;-60
2022/10/22 09:36:02;;;;;;;28.20;18.00;;;;;;;14.31;58.80;98873.67;226274;1241;139074;-61
2022/10/22 09:41:07;;;;;;;25.20;17.30;;;;;;;14.42;58.78;98893.48;227453;1248;140672;-58
2022/10/22 09:46:20;;;;;;;26.60;17.20;;;;;;;14.51;58.53;98904.79;226465;1241;138586;-60
2022/10/22 09:51:54;;;;;;;26.20;18.00;;;;;;;14.52;58.27;98909.56;227441;1243;140726;-61
2022/10/22 09:57:03;;;;;;;25.90;17.00;;;;;;;14.53;58.26;98906.77;226509;1241;139092;-61
2022/10/22 10:02:12;;;;;;;27.50;16.50;;;;;;;14.54;58.11;98900.95;226669;1241;139024;-61
2022/10/22 10:07:33;;;;;;;24.00;16.50;;;;;;;14.57;58.11;98911.77;226346;1241;139310;-62
2022/10/22 10:12:56;;;;;;;25.60;15.90;;;;;;;14.59;58.16;98911.44;226356;1241;139495;-60
2022/10/22 10:18:37;;;;;;;23.50;14.60;;;;;;;14.59;57.94;98912.33;226709;1241;138842;-61
2022/10/22 10:23:57;;;;;;;19.70;14.50;;;;;;;14.57;58.04;98926.95;227052;1233;140386;-64
2022/10/22 10:29:15;;;;;;;21.10;14.40;;;;;;;14.58;57.95;98919.77;226149;1244;139808;-61
2022/10/22 10:34:34;;;;;;;27.00;18.00;;;;;;;14.60;58.04;98912.41;226461;1245;139750;-61
2022/10/22 10:39:58;;;;;;;19.60;14.10;;;;;;;14.65;57.94;98922.73;227310;1233;138673;-60
2022/10/22 10:45:16;;;;;;;21.70;13.60;;;;;;;14.63;57.72;98922.05;226159;1242;139381;-64
2022/10/22 10:50:49;;;;;;;22.00;15.10;;;;;;;14.62;57.86;98918.67;227435;1233;140207;-63
2022/10/22 10:56:07;;;;;;;269.00;169.60;;;;;;;14.65;58.00;98916.52;227395;1234;139404;-61
2022/10/22 11:01:22;;;;;;;31.30;21.00;;;;;;;14.65;58.04;98916.99;226458;1241;140064;-61
2022/10/22 11:06:29;;;;;;;25.80;13.60;;;;;;;14.66;58.10;98919.84;227383;1234;139231;-62
2022/10/22 11:11:39;;;;;;;21.30;14.50;;;;;;;14.67;58.33;98914.16;226695;1247;138787;-63
2022/10/22 11:16:48;;;;;;;24.60;15.40;;;;;;;14.71;58.35;98909.43;226469;1238;139234;-62
2022/10/22 11:22:21;;;;;;;99.90;73.90;;;;;;;14.71;58.73;98904.19;226413;1243;139432;-63
2022/10/22 11:27:38;;;;;;;20.60;12.90;;;;;;;14.80;58.87;98904.20;226565;1234;139728;-62
2022/10/22 11:32:46;;;;;;;20.20;13.00;;;;;;;14.90;58.88;98895.84;226549;1241;139665;-62
2022/10/22 11:37:50;;;;;;;22.10;13.40;;;;;;;14.97;58.98;98894.45;226495;1233;138995;-62
2022/10/22 11:43:02;;;;;;;20.20;13.00;;;;;;;15.00;59.04;98891.34;226388;1245;140289;-64
2022/10/22 11:48:06;;;;;;;18.70;13.20;;;;;;;15.00;59.04;98890.23;226485;1241;139077;-63
2022/10/22 11:53:12;;;;;;;26.60;16.60;;;;;;;14.96;59.34;98888.80;227471;1234;139573;-62
2022/10/22 11:58:26;;;;;;;;;;;;;;;14.95;59.62;98880.32;226636;1241;139109;-62
2022/10/22 12:03:29;;;;;;;26.00;13.70;;;;;;;14.85;59.61;98870.02;226806;1247;125208;-65
2022/10/22 12:08:33;;;;;;;22.00;13.90;;;;;;;14.71;59.79;98861.34;227502;1232;138906;-62
2022/10/22 12:14:00;;;;;;;21.70;14.90;;;;;;;14.60;60.30;98862.39;227496;1234;139710;-64
2022/10/22 12:19:14;;;;;;;24.40;14.90;;;;;;;14.55;60.58;98857.14;226590;1234;139461;-64
2022/10/22 12:24:22;;;;;;;23.50;15.50;;;;;;;14.59;61.12;98857.72;227447;1238;139039;-64
2022/10/22 12:29:26;;;;;;;25.30;16.00;;;;;;;14.66;61.45;98859.80;226717;1249;139824;-61
2022/10/22 12:34:29;;;;;;;27.30;16.80;;;;;;;14.71;61.63;98852.95;226752;1241;139988;-61
2022/10/22 12:39:34;;;;;;;25.40;16.90;;;;;;;14.70;61.50;98856.28;227422;1227;141040;-61
2022/10/22 12:44:37;;;;;;;26.80;16.50;;;;;;;14.69;61.66;98864.23;226621;1237;139153;-61
2022/10/22 12:49:43;;;;;;;28.50;16.70;;;;;;;14.66;61.80;98864.59;227433;1234;139365;-63
2022/10/22 12:54:51;;;;;;;23.70;17.00;;;;;;;14.60;61.79;98859.02;226722;1241;139142;-61
2022/10/22 12:59:54;;;;;;;26.80;15.60;;;;;;;14.57;61.96;98856.65;227565;1233;139608;-61
2022/10/22 13:05:20;;;;;;;25.40;15.80;;;;;;;14.57;62.05;98860.94;226594;1234;139271;-62
2022/10/22 13:10:31;;;;;;;23.80;16.00;;;;;;;14.59;62.15;98853.42;226644;1237;139520;-61
2022/10/22 13:15:37;;;;;;;26.30;17.10;;;;;;;14.53;62.18;98853.51;226519;1241;139327;-62
2022/10/22 13:20:55;;;;;;;24.50;16.10;;;;;;;14.49;62.54;98848.46;227489;1234;139542;-62
2022/10/22 13:26:16;;;;;;;25.90;16.10;;;;;;;14.50;62.65;98856.06;226467;1241;139494;-63
2022/10/22 13:31:31;;;;;;;26.40;16.20;;;;;;;14.50;62.73;98854.67;226682;1241;140392;-65
2022/10/22 13:36:35;;;;;;;27.80;16.50;;;;;;;14.47;62.88;98851.89;226716;1237;139861;-62
2022/10/22 13:41:38;;;;;;;27.50;16.60;;;;;;;14.50;62.89;98845.55;227552;1233;140615;-63
2022/10/22 13:46:47;;;;;;;28.70;17.40;;;;;;;14.52;62.96;98845.75;226474;1227;139223;-63
2022/10/22 13:51:51;;;;;;;25.40;16.90;;;;;;;14.53;63.14;98839.66;226643;1239;139572;-62
2022/10/22 13:56:54;;;;;;;23.70;17.90;;;;;;;14.50;63.28;98839.86;227449;1234;139373;-64
2022/10/22 14:02:04;;;;;;;27.50;17.70;;;;;;;14.47;63.32;98828.83;226523;1241;138861;-62
2022/10/22 14:07:13;;;;;;;24.30;17.60;;;;;;;14.44;63.30;98822.64;226559;1250;139336;-60
2022/10/22 14:12:16;;;;;;;25.90;17.00;;;;;;;14.40;63.66;98812.59;227506;1227;139130;-64
2022/10/22 14:17:19;;;;;;;29.10;17.30;;;;;;;14.47;63.77;98806.38;226666;1241;139570;-62
2022/10/22 14:22:25;;;;;;;26.80;16.90;;;;;;;14.57;63.97;98809.89;226368;1238;139797;-61
2022/10/22 14:27:28;;;;;;;29.60;18.80;;;;;;;14.57;63.93;98821.10;227344;1226;139730;-62
2022/10/22 14:32:31;;;;;;;30.50;19.00;;;;;;;14.58;64.13;98832.75;226353;1242;140282;-61
2022/10/22 14:37:34;;;;;;;31.50;18.40;;;;;;;14.65;64.27;98837.05;226375;1234;139404;-61
2022/10/22 14:42:44;;;;;;;30.80;20.10;;;;;;;14.60;64.01;98840.42;226538;1238;139248;-63
2022/10/22 14:47:49;;;;;;;26.50;17.70;;;;;;;14.58;64.11;98842.23;227476;1234;139311;-61
2022/10/22 14:52:52;;;;;;;27.50;17.90;;;;;;;14.59;64.10;98845.90;227289;1233;139735;-63
2022/10/22 14:57:56;;;;;;;44.20;31.90;;;;;;;14.59;64.15;98850.33;226339;1238;139516;-63
2022/10/22 15:02:59;;;;;;;27.40;20.00;;;;;;;14.60;64.41;98854.04;226561;1241;139105;-63
2022/10/22 15:08:06;;;;;;;27.30;19.40;;;;;;;14.58;64.46;98854.06;226634;1238;140250;-64
2022/10/22 15:13:09;;;;;;;30.20;19.90;;;;;;;14.53;64.51;98861.99;227364;1241;139456;-62
2022/10/22 15:18:12;;;;;;;41.90;28.60;;;;;;;14.47;64.64;98858.31;226579;1242;139129;-62
2022/10/22 15:23:15;;;;;;;30.20;21.10;;;;;;;14.45;64.85;98864.89;226383;1241;139486;-63
2022/10/22 15:28:19;;;;;;;28.30;20.20;;;;;;;14.46;64.97;98863.19;227375;1233;139780;-61
2022/10/22 15:33:23;;;;;;;31.80;20.40;;;;;;;14.50;65.11;98861.68;226625;1241;139623;-60
2022/10/22 15:38:28;;;;;;;30.00;20.20;;;;;;;14.50;65.20;98857.02;226501;1241;139096;-62
2022/10/22 15:43:33;;;;;;;30.00;21.60;;;;;;;14.49;65.45;98855.67;227335;1240;139374;-62
2022/10/22 15:48:36;;;;;;;31.50;22.40;;;;;;;14.43;65.47;98849.83;226179;1241;139075;-63
2022/10/22 15:53:39;;;;;;;29.20;19.70;;;;;;;14.35;65.50;98845.89;226589;1234;139454;-63
2022/10/22 15:58:42;;;;;;;30.70;21.40;;;;;;;14.32;65.81;98858.79;227453;1234;139614;-62
2022/10/22 16:03:45;;;;;;;33.00;23.00;;;;;;;14.34;65.96;98865.55;227415;1228;139903;-63
2022/10/22 16:08:48;;;;;;;33.70;22.90;;;;;;;14.35;66.19;98869.42;226453;1237;138941;-65
2022/10/22 16:13:55;;;;;;;35.30;23.30;;;;;;;14.34;66.27;98867.92;227277;1227;139456;-64
2022/10/22 16:18:59;;;;;;;33.80;23.90;;;;;;;14.29;66.27;98880.11;226276;1236;138983;-61
2022/10/22 16:24:02;;;;;;;30.30;22.30;;;;;;;14.25;66.27;98884.30;226545;1244;138928;-63
2022/10/22 16:29:11;;;;;;;34.60;23.20;;;;;;;14.26;66.48;98890.52;226698;1241;139913;-63
2022/10/22 16:34:14;;;;;;;36.90;25.20;;;;;;;14.26;66.57;98901.00;226156;1234;139506;-64
2022/10/22 16:39:17;;;;;;;35.30;24.40;;;;;;;14.33;67.27;98910.44;227332;1240;139438;-61
2022/10/22 16:44:20;;;;;;;33.50;24.10;;;;;;;14.42;67.06;98910.43;226530;1240;139477;-63
2022/10/22 16:49:23;;;;;;;36.00;24.20;;;;;;;14.40;66.97;98916.88;226919;1248;140033;-61
2022/10/22 16:54:26;;;;;;;32.70;23.70;;;;;;;14.40;66.91;98923.29;226871;1246;139665;-63
2022/10/22 16:59:29;;;;;;;30.50;23.10;;;;;;;14.36;66.74;98925.73;226943;1233;139704;-63
2022/10/22 17:04:33;;;;;;;33.60;24.10;;;;;;;14.37;66.85;98931.70;226854;1240;139797;-62
2022/10/22 17:09:36;;;;;;;34.10;24.60;;;;;;;14.39;67.19;98937.22;226897;1240;139321;-60
2022/10/22 17:14:39;;;;;;;33.70;23.40;;;;;;;14.43;67.28;98944.41;226791;1241;139122;-60
2022/10/22 17:19:42;;;;;;;34.80;24.80;;;;;;;14.49;67.35;98941.71;226892;1238;138932;-64
2022/10/22 17:24:45;;;;;;;33.50;24.50;;;;;;;14.52;67.37;98940.71;226841;1248;139253;-63
2022/10/22 17:29:48;;;;;;;33.60;23.70;;;;;;;14.54;67.24;98940.81;227721;1227;139560;-62
2022/10/22 17:34:51;;;;;;;33.40;24.50;;;;;;;14.58;67.44;98935.25;226921;1234;141027;-62
2022/10/22 17:39:54;;;;;;;39.60;26.70;;;;;;;14.64;67.69;98934.05;226921;1249;138494;-62
2022/10/22 17:44:57;;;;;;;39.70;26.30;;;;;;;14.64;67.57;98939.23;226746;1233;139586;-62
2022/10/22 17:50:00;;;;;;;69.30;47.40;;;;;;;14.61;67.51;98940.39;227638;1234;139423;-62
2022/10/22 17:55:03;;;;;;;33.80;25.40;;;;;;;14.61;67.58;98934.63;226639;1240;139298;-63
2022/10/22 18:00:07;;;;;;;36.80;25.30;;;;;;;14.62;67.77;98934.55;226998;1233;140275;-61
2022/10/22 18:05:10;;;;;;;37.20;26.80;;;;;;;14.59;67.77;98940.16;227640;1234;138925;-64
2022/10/22 18:10:14;;;;;;;36.30;26.30;;;;;;;14.50;67.74;98943.95;227690;1234;139181;-63
2022/10/22 18:15:17;;;;;;;37.10;25.00;;;;;;;14.44;67.95;98950.77;226874;1234;139259;-61
2022/10/22 18:20:20;;;;;;;34.10;25.00;;;;;;;14.44;68.09;98952.23;227646;1241;139628;-63
2022/10/22 18:25:23;;;;;;;31.30;24.60;;;;;;;14.45;68.11;98958.04;227671;1234;139758;-61
2022/10/22 18:30:26;;;;;;;33.80;25.20;;;;;;;14.46;68.45;98956.21;227670;1242;139166;-64
2022/10/22 18:35:31;;;;;;;35.00;25.40;;;;;;;14.44;68.43;98954.72;227040;1249;139282;-62
2022/10/22 18:40:34;;;;;;;33.20;25.20;;;;;;;14.41;68.47;98959.06;227658;1225;140247;-61
2022/10/22 18:45:45;;;;;;;31.10;22.60;;;;;;;14.39;68.60;98965.26;226854;1247;140076;-64
2022/10/22 18:50:58;;;;;;;31.20;22.80;;;;;;;14.39;68.61;98972.48;227661;1233;139794;-64
2022/10/22 18:56:06;;;;;;;31.70;22.80;;;;;;;14.34;68.69;98977.30;226915;1236;138833;-64
2022/10/22 19:01:12;;;;;;;28.30;22.00;;;;;;;14.31;68.71;98981.99;227754;1240;138734;-64
2022/10/22 19:06:23;;;;;;;25.70;20.20;;;;;;;14.26;68.80;98982.91;226979;1233;140804;-64
2022/10/22 19:11:26;;;;;;;23.60;18.50;;;;;;;14.21;68.75;98991.54;227007;1249;139577;-62
2022/10/22 19:16:29;;;;;;;25.70;20.20;;;;;;;14.20;69.01;98995.67;226949;1243;139056;-62
2022/10/22 19:21:35;;;;;;;25.70;18.30;;;;;;;14.22;69.18;99000.92;226972;1238;138988;-62
2022/10/22 19:26:38;;;;;;;24.30;18.50;;;;;;;14.22;69.19;98998.80;226955;1238;139051;-62
2022/10/22 19:31:41;;;;;;;23.50;18.40;;;;;;;14.20;69.06;98999.11;226870;1249;141172;-62
2022/10/22 19:36:45;;;;;;;21.80;17.10;;;;;;;14.19;69.06;98997.56;226701;1245;139715;-61
2022/10/22 19:41:48;;;;;;;22.60;18.60;;;;;;;14.18;69.11;98997.46;227069;1234;140354;-61
2022/10/22 19:46:51;;;;;;;25.30;18.30;;;;;;;14.17;69.23;99000.76;226648;1241;139461;-62
2022/10/22 19:51:54;;;;;;;23.50;18.40;;;;;;;14.15;69.04;99009.33;226950;1240;139061;-62
2022/10/22 19:56:56;;;;;;;24.00;17.60;;;;;;;14.16;68.96;99022.08;226950;1239;140085;-66
2022/10/22 20:02:00;;;;;;;24.90;19.40;;;;;;;14.14;69.24;99036.27;227776;1230;139296;-64
2022/10/22 20:07:04;;;;;;;29.40;19.10;;;;;;;14.12;69.31;99043.64;226956;1235;139049;-65
2022/10/22 20:12:07;;;;;;;26.60;20.10;;;;;;;14.10;69.24;99052.33;227821;1241;139311;-60
2022/10/22 20:17:11;;;;;;;27.60;19.90;;;;;;;14.08;69.33;99065.52;227667;1241;140332;-61
2022/10/22 20:22:14;;;;;;;30.90;20.90;;;;;;;14.09;69.53;99066.30;226957;1241;138897;-60
2022/10/22 20:27:20;;;;;;;31.70;22.20;;;;;;;14.09;69.39;99068.45;226907;1241;138886;-57
2022/10/22 20:32:25;;;;;;;30.10;20.60;;;;;;;14.05;69.37;99070.40;226934;1249;139750;-58
2022/10/22 20:37:28;;;;;;;30.50;19.90;;;;;;;14.06;69.37;99072.27;227748;1226;140161;-58
2022/10/22 20:42:31;;;;;;;31.00;20.20;;;;;;;14.10;69.45;99078.90;227008;1249;139675;-60
2022/10/22 20:47:36;;;;;;;33.00;22.30;;;;;;;14.15;69.64;99087.77;226748;1246;138953;-61
2022/10/22 20:52:53;;;;;;;34.60;22.50;;;;;;;14.21;69.73;99079.48;226535;1244;139237;-57
2022/10/22 20:57:56;;;;;;;36.20;22.60;;;;;;;14.16;69.46;99087.88;227671;1241;138473;-63
2022/10/22 21:02:59;;;;;;;33.00;22.70;;;;;;;14.14;69.48;99088.95;226960;1241;141173;-63
2022/10/22 21:08:03;;;;;;;34.70;23.10;;;;;;;14.18;69.68;99091.34;227702;1225;139335;-63
2022/10/22 21:13:07;;;;;;;36.50;24.30;;;;;;;14.19;69.67;99093.94;226933;1249;139005;-63
2022/10/22 21:18:10;;;;;;;36.60;24.10;;;;;;;14.15;69.70;99096.70;227801;1236;138914;-63
2022/10/22 21:23:13;;;;;;;37.50;24.60;;;;;;;14.11;69.73;99101.46;226971;1241;138956;-62
2022/10/22 21:28:16;;;;;;;33.70;23.20;;;;;;;14.11;69.79;99108.13;226955;1241;139754;-63
2022/10/22 21:33:20;;;;;;;30.80;22.10;;;;;;;14.14;69.94;99110.38;227644;1233;139271;-61
2022/10/22 21:38:23;;;;;;;36.30;24.20;;;;;;;14.16;70.06;99112.67;226878;1233;138906;-61
2022/10/22 21:43:26;;;;;;;29.40;22.10;;;;;;;14.22;70.09;99115.85;226997;1240;139327;-62
2022/10/22 21:48:29;;;;;;;30.00;20.80;;;;;;;14.26;70.01;99116.24;226820;1248;139408;-60
2022/10/22 21:53:32;;;;;;;29.80;21.50;;;;;;;14.29;70.06;99116.18;227839;1233;140419;-61
2022/10/22 21:58:35;;;;;;;30.90;22.20;;;;;;;14.33;70.08;99122.32;226723;1241;139970;-61
2022/10/22 22:03:44;;;;;;;28.00;20.60;;;;;;;14.36;70.01;99113.51;226778;1242;139290;-60
2022/10/22 22:08:47;;;;;;;27.00;19.70;;;;;;;14.37;69.80;99110.77;226612;1241;139389;-61
2022/10/22 22:13:52;;;;;;;26.70;19.40;;;;;;;14.40;69.79;99117.32;226858;1237;139335;-62
2022/10/22 22:19:01;;;;;;;27.70;20.10;;;;;;;14.42;69.86;99127.45;227661;1234;139859;-62
2022/10/22 22:24:07;;;;;;;29.60;20.20;;;;;;;14.46;69.77;99127.05;227101;1255;140006;-61
2022/10/22 22:29:10;;;;;;;25.20;18.80;;;;;;;14.44;69.63;99146.44;226877;1250;140776;-60
2022/10/22 22:34:15;;;;;;;25.40;18.60;;;;;;;14.47;69.60;99150.38;226733;1249;141417;-61
2022/10/22 22:39:21;;;;;;;27.30;19.70;;;;;;;14.50;69.59;99152.45;226628;1242;139534;-60
2022/10/22 22:44:24;;;;;;;27.70;20.30;;;;;;;14.50;69.62;99157.80;226640;1244;140079;-61
2022/10/22 22:49:27;;;;;;;28.90;19.50;;;;;;;14.51;69.62;99168.65;227614;1246;139512;-58
2022/10/22 22:54:30;;;;;;;26.20;19.00;;;;;;;14.49;69.53;99161.84;227697;1235;139994;-58
2022/10/22 22:59:33;;;;;;;29.60;18.80;;;;;;;14.51;69.49;99158.12;226988;1241;139814;-59